Time;durP1;ratioP1;P1;durP2;ratioP2;P2;SDS_P1;SDS_P2;PMS_P1;PMS_P2;Temp;Humidity;BMP_temperature;BMP_pressure;BME280_temperature;BME280_humidity;BME280_pressure;Samples;Min_cycle;Max_cycle;Signal;HPM_P1;HPM_P2
2022/10/09 00:04:46;;;;;;;;;;;16.20;99.90;;;;;;5005148;28;20522;-81
2022/10/09 00:07:19;;;;;;;;;;;16.30;99.90;;;;;;5063661;28;19934;-81
2022/10/09 00:19:15;;;;;;;;;;;16.20;99.90;;;;;;5050376;28;19920;-81
2022/10/09 00:21:46;;;;;;;;;;;16.20;99.90;;;;;;5050954;28;20009;-82
2022/10/09 01:32:47;;;;;;;;;;;16.00;99.90;;;;;;4933091;29;19935;-82
2022/10/09 01:41:50;;;;;;;;;;;;;;;;;;;;;
2022/10/09 01:47:59;;;;;;;;;;;15.90;99.90;;;;;;5071454;28;19915;-82
2022/10/09 02:00:22;;;;;;;;;;;;;;;;;;;;;
2022/10/09 02:02:46;;;;;;;;;;;16.30;99.90;;;;;;5005722;28;19910;-82
2022/10/09 02:05:23;;;;;;;;;;;16.50;99.90;;;;;;5008870;28;19909;-82
2022/10/09 02:11:26;;;;;;;;;;;16.60;99.90;;;;;;4956922;29;19914;-81
2022/10/09 02:14:17;;;;;;;;;;;16.90;99.90;;;;;;4950587;29;19918;-82
2022/10/09 02:20:02;;;;;;;;;;;17.10;99.90;;;;;;4988629;28;19914;-82
2022/10/09 02:38:34;;;;;;;;;;;18.00;99.90;;;;;;5003609;28;19952;-80
2022/10/09 02:44:23;;;;;;;;;;;17.80;99.90;;;;;;4987328;28;19992;-81
2022/10/09 02:50:27;;;;;;;;;;;;;;;;;;;;;
2022/10/09 02:59:08;;;;;;;;;;;17.80;99.90;;;;;;4948907;29;20129;-80
2022/10/09 03:20:40;;;;;;;;;;;;;;;;;;;;;
2022/10/09 03:45:38;;;;;;;;;;;17.90;99.90;;;;;;4964196;28;19982;-81
2022/10/09 04:03:51;;;;;;;;;;;17.60;99.90;;;;;;5083591;28;19923;-81
2022/10/09 04:07:01;;;;;;;;;;;;;;;;;;;;;
2022/10/09 04:19:02;;;;;;;;;;;17.60;99.90;;;;;;4979306;28;19962;-81
2022/10/09 04:34:17;;;;;;;;;;;;;;;;;;;;;
2022/10/09 04:40:24;;;;;;;;;;;17.60;99.90;;;;;;4912345;29;19975;-81
2022/10/09 05:27:08;;;;;;;;;;;17.80;99.90;;;;;;5009223;28;19949;-82
2022/10/09 05:52:40;;;;;;;;;;;18.20;99.90;;;;;;4986932;28;19976;-81
2022/10/09 05:55:50;;;;;;;;;;;18.20;99.90;;;;;;4988019;28;19924;-81
2022/10/09 05:58:21;;;;;;;;;;;18.20;99.90;;;;;;4955201;29;19926;-81
2022/10/09 06:01:00;;;;;;;;;;;18.40;99.90;;;;;;5003981;28;19925;-82
2022/10/09 06:03:52;;;;;;;;;;;18.40;99.90;;;;;;5013289;28;19949;-81
2022/10/09 06:21:30;;;;;;;;;;;18.50;99.90;;;;;;5086263;28;19927;-82
2022/10/09 06:24:00;;;;;;;;;;;18.60;99.90;;;;;;5086841;28;19913;-81
2022/10/09 06:26:35;;;;;;;;;;;18.70;99.90;;;;;;5086857;28;19959;-82
2022/10/09 06:29:04;;;;;;;;;;;18.80;99.90;;;;;;5087395;28;19913;-81
2022/10/09 06:31:39;;;;;;;;;;;18.90;99.90;;;;;;5086919;28;19912;-81
2022/10/09 06:34:16;;;;;;;;;;;18.90;99.90;;;;;;5084548;28;19966;-81
2022/10/09 06:37:00;;;;;;;;;;;19.00;99.90;;;;;;5087606;28;19920;-82
2022/10/09 06:39:55;;;;;;;;;;;19.10;99.90;;;;;;5083660;28;19931;-82
2022/10/09 06:42:24;;;;;;;;;;;19.10;99.90;;;;;;5017953;28;19977;-81
2022/10/09 06:44:50;;;;;;;;;;;19.40;99.90;;;;;;5004693;28;19914;-81
2022/10/09 06:47:40;;;;;;;;;;;19.50;99.90;;;;;;5064950;28;19923;-81
2022/10/09 06:50:11;;;;;;;;;;;19.40;99.90;;;;;;5085282;28;19936;-81
2022/10/09 06:52:37;;;;;;;;;;;19.50;99.90;;;;;;5085927;28;19913;-81
2022/10/09 06:55:03;;;;;;;;;;;19.60;99.90;;;;;;5080378;28;19917;-81
2022/10/09 06:57:32;;;;;;;;;;;19.70;99.90;;;;;;5077743;28;19919;-82
2022/10/09 07:00:11;;;;;;;;;;;19.80;99.90;;;;;;5079392;28;19921;-82
2022/10/09 07:09:15;;;;;;;;;;;19.90;99.90;;;;;;5043320;28;19920;-82
2022/10/09 07:11:52;;;;;;;;;;;;;;;;;;;;;
2022/10/09 07:14:37;;;;;;;;;;;20.20;99.90;;;;;;5044572;28;19956;-81
2022/10/09 07:30:53;;;;;;;;;;;20.80;99.90;;;;;;4940715;29;19965;-81
2022/10/09 07:33:28;;;;;;;;;;;21.00;99.90;;;;;;4944832;28;19918;-76
2022/10/09 07:36:15;;;;;;;;;;;21.10;99.90;;;;;;4947923;28;20468;-76
2022/10/09 07:38:41;;;;;;;;;;;21.00;99.90;;;;;;4967236;28;19918;-76
2022/10/09 07:41:17;;;;;;;;;;;20.90;99.90;;;;;;4966290;28;19921;-76
2022/10/09 07:43:43;;;;;;;;;;;20.80;99.90;;;;;;5012934;28;19913;-76
2022/10/09 07:46:18;;;;;;;;;;;20.80;99.90;;;;;;5073116;28;19909;-75
2022/10/09 07:48:44;;;;;;;;;;;20.90;99.90;;;;;;5073166;28;19908;-76
2022/10/09 07:51:10;;;;;;;;;;;21.00;99.90;;;;;;5053586;28;19924;-76
2022/10/09 07:53:36;;;;;;;;;;;20.90;99.90;;;;;;5071469;28;20358;-76
2022/10/09 07:56:03;;;;;;;;;;;20.80;99.90;;;;;;5073472;28;19920;-77
2022/10/09 07:58:31;;;;;;;;;;;20.90;99.90;;;;;;5072978;28;19923;-76
2022/10/09 08:01:04;;;;;;;;;;;21.00;99.90;;;;;;5078766;28;19912;-76
2022/10/09 08:03:36;;;;;;;;;;;21.10;99.90;;;;;;5079106;28;19919;-74
2022/10/09 08:06:14;;;;;;;;;;;21.00;99.90;;;;;;5068849;28;20328;-75
2022/10/09 08:08:40;;;;;;;;;;;21.00;99.90;;;;;;5092201;28;19919;-77
2022/10/09 08:11:10;;;;;;;;;;;21.10;99.90;;;;;;5079950;28;19912;-77
2022/10/09 08:13:35;;;;;;;;;;;21.20;99.90;;;;;;5057237;28;19924;-77
2022/10/09 08:16:21;;;;;;;;;;;21.20;99.90;;;;;;5082720;28;19916;-78
2022/10/09 08:19:24;;;;;;;;;;;21.20;99.90;;;;;;5099874;28;19924;-77
2022/10/09 08:22:15;;;;;;;;;;;;;;;;;;;;;
2022/10/09 08:25:16;;;;;;;;;;;21.10;99.90;;;;;;5086822;28;19951;-79
2022/10/09 08:27:51;;;;;;;;;;;21.20;99.90;;;;;;5103452;28;19974;-76
2022/10/09 08:30:30;;;;;;;;;;;21.20;99.90;;;;;;5092635;28;19912;-82
2022/10/09 08:33:24;;;;;;;;;;;;;;;;;;;;;
2022/10/09 08:36:13;;;;;;;;;;;21.30;99.90;;;;;;5092702;28;19958;-75
2022/10/09 08:38:37;;;;;;;;;;;21.50;99.90;;;;;;5081562;28;19963;-75
2022/10/09 08:42:06;;;;;;;;;;;21.60;99.90;;;;;;5063513;28;19927;-76
2022/10/09 08:44:12;;;;;;;;;;;21.40;99.90;;;;;;5062778;28;19920;-75
2022/10/09 08:46:59;;;;;;;;;;;21.50;99.90;;;;;;5061746;28;20000;-76
2022/10/09 08:49:38;;;;;;;;;;;21.50;99.90;;;;;;5077459;28;19912;-79
2022/10/09 08:52:16;;;;;;;;;;;21.50;99.90;;;;;;5083190;28;19917;-76
2022/10/09 08:54:42;;;;;;;;;;;21.50;99.90;;;;;;5083635;28;20118;-76
2022/10/09 08:57:27;;;;;;;;;;;21.60;99.90;;;;;;5082207;28;19913;-76
2022/10/09 08:59:59;;;;;;;;;;;21.70;99.90;;;;;;5082003;28;19925;-75
2022/10/09 09:02:41;;;;;;;;;;;21.80;99.90;;;;;;5091717;28;20041;-76
2022/10/09 09:05:34;;;;;;;;;;;21.60;99.90;;;;;;5104375;28;19972;-76
2022/10/09 09:08:26;;;;;;;;;;;21.70;99.90;;;;;;5082942;28;19925;-76
2022/10/09 09:11:18;;;;;;;;;;;21.70;99.90;;;;;;5083724;28;19922;-78
2022/10/09 09:14:13;;;;;;;;;;;21.70;99.90;;;;;;5079032;28;19916;-75
2022/10/09 09:17:00;;;;;;;;;;;21.80;99.90;;;;;;5082923;28;19955;-76
2022/10/09 09:19:35;;;;;;;;;;;21.70;99.90;;;;;;5079870;28;19922;-75
2022/10/09 09:22:01;;;;;;;;;;;21.70;99.90;;;;;;5072842;28;19955;-76
2022/10/09 09:24:36;;;;;;;;;;;21.70;99.90;;;;;;5065411;28;19912;-74
2022/10/09 09:27:05;;;;;;;;;;;21.80;99.90;;;;;;5078212;28;19916;-74
2022/10/09 09:29:38;;;;;;;;;;;21.90;99.90;;;;;;5079637;28;19956;-75
2022/10/09 09:32:04;;;;;;;;;;;21.90;99.90;;;;;;5061840;28;19927;-76
2022/10/09 09:34:41;;;;;;;;;;;21.80;99.90;;;;;;5063217;28;19912;-76
2022/10/09 09:37:09;;;;;;;;;;;21.90;99.90;;;;;;5067131;28;20230;-76
2022/10/09 09:39:36;;;;;;;;;;;21.90;99.90;;;;;;5058626;28;20056;-76
2022/10/09 09:42:14;;;;;;;;;;;21.90;99.90;;;;;;5065843;28;20008;-77
2022/10/09 09:44:55;;;;;;;;;;;21.90;99.90;;;;;;5080031;28;20003;-76
2022/10/09 09:47:28;;;;;;;;;;;22.00;99.90;;;;;;5074762;28;20007;-76
2022/10/09 09:49:58;;;;;;;;;;;22.30;99.90;;;;;;5075904;28;19959;-77
2022/10/09 09:52:36;;;;;;;;;;;22.40;99.90;;;;;;5057258;28;19925;-75
2022/10/09 09:55:25;;;;;;;;;;;22.40;99.90;;;;;;5070290;28;19959;-75
2022/10/09 09:58:02;;;;;;;;;;;22.50;99.90;;;;;;5071109;28;19945;-76
2022/10/09 10:00:31;;;;;;;;;;;22.50;99.90;;;;;;5072962;28;20436;-76
2022/10/09 10:06:36;;;;;;;;;;;22.50;99.90;;;;;;5047668;28;19966;-76
2022/10/09 10:09:14;;;;;;;;;;;22.60;99.90;;;;;;5040448;28;19917;-76
2022/10/09 10:11:54;;;;;;;;;;;22.70;99.90;;;;;;5047369;28;19916;-76
2022/10/09 10:14:20;;;;;;;;;;;22.70;99.90;;;;;;5040259;28;19978;-76
2022/10/09 10:16:53;;;;;;;;;;;22.70;99.90;;;;;;5075992;28;20389;-76
2022/10/09 10:19:26;;;;;;;;;;;22.50;99.90;;;;;;5076618;28;19917;-76
2022/10/09 10:21:54;;;;;;;;;;;22.50;99.90;;;;;;5070595;28;19919;-76
2022/10/09 10:24:29;;;;;;;;;;;22.40;99.90;;;;;;5055057;28;19963;-75
2022/10/09 10:27:13;;;;;;;;;;;22.30;99.90;;;;;;5072287;28;19927;-73
2022/10/09 10:30:10;;;;;;;;;;;22.30;99.90;;;;;;5071762;28;19920;-75
2022/10/09 10:32:54;;;;;;;;;;;22.30;99.90;;;;;;5073879;28;19959;-72
2022/10/09 10:39:29;;;;;;;;;;;22.20;99.90;;;;;;5072877;28;20027;-73
2022/10/09 10:42:03;;;;;;;;;;;22.20;99.90;;;;;;5051231;28;20007;-74
2022/10/09 10:44:29;;;;;;;;;;;22.20;99.90;;;;;;5055859;28;19961;-73
2022/10/09 10:47:08;;;;;;;;;;;22.10;99.90;;;;;;5071730;28;19912;-72
2022/10/09 10:49:46;;;;;;;;;;;22.30;99.90;;;;;;5076663;28;19944;-73
2022/10/09 10:52:36;;;;;;;;;;;22.30;99.90;;;;;;5072446;28;19912;-73
2022/10/09 10:55:24;;;;;;;;;;;22.20;99.90;;;;;;5052705;28;19963;-72
2022/10/09 10:58:19;;;;;;;;;;;22.10;99.90;;;;;;5071181;28;20461;-73
2022/10/09 11:01:08;;;;;;;;;;;22.00;99.90;;;;;;5074810;28;19912;-74
2022/10/09 11:06:54;;;;;;;;;;;22.30;99.90;;;;;;5068874;28;19996;-73
2022/10/09 11:09:56;;;;;;;;;;;22.00;99.90;;;;;;5058219;28;19913;-73
2022/10/09 11:12:49;;;;;;;;;;;21.70;99.90;;;;;;5053539;28;19912;-73
2022/10/09 11:15:38;;;;;;;;;;;21.60;99.90;;;;;;5052631;28;19912;-73
2022/10/09 11:18:36;;;;;;;;;;;21.70;99.90;;;;;;5070718;28;19924;-73
2022/10/09 11:21:46;;;;;;;;;;;21.80;99.90;;;;;;5023843;28;19913;-73
2022/10/09 11:24:36;;;;;;;;;;;21.90;99.90;;;;;;4991634;28;19924;-74
2022/10/09 11:27:04;;;;;;;;;;;21.90;99.90;;;;;;4988035;28;20016;-73
2022/10/09 11:32:50;;;;;;;;;;;21.90;99.90;;;;;;4990377;28;20335;-73
2022/10/09 11:35:38;;;;;;;;;;;21.90;99.90;;;;;;4980963;28;19952;-73
2022/10/09 11:38:22;;;;;;;;;;;21.90;99.90;;;;;;5005911;28;20020;-73
2022/10/09 11:41:17;;;;;;;;;;;21.90;99.90;;;;;;5021775;28;19912;-72
2022/10/09 11:44:11;;;;;;;;;;;22.00;99.90;;;;;;5060416;28;19936;-73
2022/10/09 11:46:50;;;;;;;;;;;22.10;99.90;;;;;;5066213;28;20293;-73
2022/10/09 11:49:24;;;;;;;;;;;22.00;99.90;;;;;;5073364;28;19916;-74
2022/10/09 11:51:50;;;;;;;;;;;22.10;99.90;;;;;;5072420;28;19912;-74
2022/10/09 11:54:17;;;;;;;;;;;22.10;99.90;;;;;;5075215;28;19921;-73
2022/10/09 11:57:03;;;;;;;;;;;21.90;99.90;;;;;;5078314;28;19920;-73
2022/10/09 11:59:30;;;;;;;;;;;21.80;99.90;;;;;;5078350;28;20396;-73
2022/10/09 12:02:08;;;;;;;;;;;21.80;99.90;;;;;;5072458;28;19920;-72
2022/10/09 12:04:43;;;;;;;;;;;21.90;99.90;;;;;;5058334;28;19919;-73
2022/10/09 12:07:12;;;;;;;;;;;21.90;99.90;;;;;;5078569;28;19912;-72
2022/10/09 12:10:13;;;;;;;;;;;22.00;99.90;;;;;;5083883;28;19939;-72
2022/10/09 12:12:33;;;;;;;;;;;22.00;99.90;;;;;;5056529;28;19952;-73
2022/10/09 12:15:08;;;;;;;;;;;22.00;99.90;;;;;;5058041;28;19909;-73
2022/10/09 12:17:46;;;;;;;;;;;22.00;99.90;;;;;;5076957;28;19912;-72
2022/10/09 12:20:17;;;;;;;;;;;21.90;99.90;;;;;;5092261;28;19912;-73
2022/10/09 12:23:00;;;;;;;;;;;22.00;99.90;;;;;;5077163;28;19969;-73
2022/10/09 12:25:39;;;;;;;;;;;22.20;99.90;;;;;;5077248;28;19995;-72
2022/10/09 12:28:05;;;;;;;;;;;22.10;99.90;;;;;;5077692;28;19975;-73
2022/10/09 12:30:34;;;;;;;;;;;22.20;99.90;;;;;;5077794;28;20011;-72
2022/10/09 12:33:17;;;;;;;;;;;22.40;99.90;;;;;;5074642;28;20381;-72
2022/10/09 12:35:45;;;;;;;;;;;22.40;99.90;;;;;;5076100;28;19957;-72
2022/10/09 12:38:15;;;;;;;;;;;22.30;99.90;;;;;;5075507;28;19924;-72
2022/10/09 12:41:21;;;;;;;;;;;22.10;99.90;;;;;;5077171;28;19931;-72
2022/10/09 12:43:47;;;;;;;;;;;22.10;99.90;;;;;;5077390;28;19915;-72
2022/10/09 12:46:30;;;;;;;;;;;22.20;99.90;;;;;;5077620;28;19934;-72
2022/10/09 12:48:56;;;;;;;;;;;22.00;99.90;;;;;;5058397;28;19926;-72
2022/10/09 12:51:35;;;;;;;;;;;22.10;99.90;;;;;;5058198;28;20340;-72
2022/10/09 12:54:13;;;;;;;;;;;22.10;99.90;;;;;;5077147;28;19919;-72
2022/10/09 12:56:39;;;;;;;;;;;22.10;99.90;;;;;;5077347;28;20271;-72
2022/10/09 12:59:05;;;;;;;;;;;22.00;99.90;;;;;;5071013;28;19963;-72
2022/10/09 13:01:34;;;;;;;;;;;22.00;99.90;;;;;;5075636;28;19952;-72
2022/10/09 13:04:03;;;;;;;;;;;22.00;99.90;;;;;;5076765;28;19908;-73
2022/10/09 13:06:31;;;;;;;;;;;22.10;99.90;;;;;;5077846;28;20011;-72
2022/10/09 13:08:58;;;;;;;;;;;22.20;99.90;;;;;;5058282;28;19934;-72
2022/10/09 13:11:43;;;;;;;;;;;22.10;99.90;;;;;;5076314;28;19912;-72
2022/10/09 13:14:27;;;;;;;;;;;22.20;99.90;;;;;;5075446;28;19966;-73
2022/10/09 13:16:53;;;;;;;;;;;22.10;99.90;;;;;;5076523;28;20012;-72
2022/10/09 13:19:29;;;;;;;;;;;22.20;99.90;;;;;;5076289;28;20167;-72
2022/10/09 13:22:16;;;;;;;;;;;22.20;99.90;;;;;;5077064;28;19913;-72
2022/10/09 13:24:42;;;;;;;;;;;22.20;99.90;;;;;;5076998;28;20358;-72
2022/10/09 13:27:09;;;;;;;;;;;22.10;99.90;;;;;;5074930;28;19908;-72
2022/10/09 13:29:34;;;;;;;;;;;22.20;99.90;;;;;;5076543;28;19970;-72
2022/10/09 13:32:21;;;;;;;;;;;22.20;99.90;;;;;;5076246;28;19909;-72
2022/10/09 13:34:47;;;;;;;;;;;22.20;99.90;;;;;;5077441;28;20046;-72
2022/10/09 13:37:13;;;;;;;;;;;22.10;99.90;;;;;;5076297;28;19958;-72
2022/10/09 13:39:39;;;;;;;;;;;22.20;99.90;;;;;;5076767;28;19912;-73
2022/10/09 13:42:05;;;;;;;;;;;22.20;99.90;;;;;;5076172;28;19912;-72
2022/10/09 13:44:31;;;;;;;;;;;22.20;99.90;;;;;;5075837;28;19919;-72
2022/10/09 13:46:57;;;;;;;;;;;22.20;99.90;;;;;;5076180;28;20385;-72
2022/10/09 13:49:22;;;;;;;;;;;22.20;99.90;;;;;;5076041;28;19995;-72
2022/10/09 13:51:48;;;;;;;;;;;22.20;99.90;;;;;;5076776;28;19962;-72
2022/10/09 13:54:14;;;;;;;;;;;22.20;99.90;;;;;;5076649;28;19912;-72
2022/10/09 13:56:42;;;;;;;;;;;22.30;99.90;;;;;;5077003;28;19995;-72
2022/10/09 13:59:08;;;;;;;;;;;22.30;99.90;;;;;;5080310;28;19958;-73
2022/10/09 14:01:34;;;;;;;;;;;22.20;99.90;;;;;;5089306;28;20425;-72
2022/10/09 14:03:59;;;;;;;;;;;22.30;99.90;;;;;;5091319;28;19935;-72
2022/10/09 14:06:25;;;;;;;;;;;22.30;99.90;;;;;;5089944;28;19908;-72
2022/10/09 14:08:51;;;;;;;;;;;22.30;99.90;;;;;;5090648;28;19919;-72
2022/10/09 14:11:17;;;;;;;;;;;22.40;99.90;;;;;;5088092;28;19930;-72
2022/10/09 14:13:42;;;;;;;;;;;22.50;99.90;;;;;;5087302;28;19948;-72
2022/10/09 14:16:10;;;;;;;;;;;22.30;99.90;;;;;;5087115;28;19919;-72
2022/10/09 14:18:35;;;;;;;;;;;22.00;99.90;;;;;;5091884;28;19956;-72
2022/10/09 14:21:11;;;;;;;;;;;22.00;99.90;;;;;;5072646;28;19897;-72
2022/10/09 14:23:37;;;;;;;;;;;22.00;99.90;;;;;;5091501;28;19916;-72
2022/10/09 14:26:03;;;;;;;;;;;22.20;99.90;;;;;;5090303;28;19908;-72
2022/10/09 14:28:29;;;;;;;;;;;22.20;99.90;;;;;;5090128;28;19919;-72
2022/10/09 14:30:55;;;;;;;;;;;22.10;99.90;;;;;;5089110;28;19908;-73
2022/10/09 14:33:20;;;;;;;;;;;22.00;99.90;;;;;;5086987;28;19936;-74
2022/10/09 14:35:46;;;;;;;;;;;22.00;99.90;;;;;;5081934;28;20171;-73
2022/10/09 14:38:12;;;;;;;;;;;21.90;99.90;;;;;;5079402;28;20318;-73
2022/10/09 14:40:43;;;;;;;;;;;21.70;99.90;;;;;;5080682;28;19938;-72
2022/10/09 14:43:10;;;;;;;;;;;21.60;99.90;;;;;;5084900;28;20191;-72
2022/10/09 14:45:36;;;;;;;;;;;21.50;99.90;;;;;;5083329;28;19912;-72
2022/10/09 14:48:02;;;;;;;;;;;21.40;99.90;;;;;;5063538;28;19908;-72
2022/10/09 14:50:27;;;;;;;;;;;21.30;99.90;;;;;;5084506;28;20317;-72
2022/10/09 14:52:53;;;;;;;;;;;21.20;99.90;;;;;;5085302;28;20183;-72
2022/10/09 14:55:19;;;;;;;;;;;21.10;99.90;;;;;;5085381;28;19916;-72
2022/10/09 14:57:45;;;;;;;;;;;21.10;99.90;;;;;;5070688;28;19979;-72
2022/10/09 15:00:11;;;;;;;;;;;21.10;99.90;;;;;;5087288;28;19916;-72
2022/10/09 15:02:36;;;;;;;;;;;21.00;99.90;;;;;;5087198;28;20286;-72
2022/10/09 15:05:03;;;;;;;;;;;21.00;99.90;;;;;;5086617;28;20006;-72
2022/10/09 15:07:30;;;;;;;;;;;21.00;99.90;;;;;;5089721;28;19943;-72
2022/10/09 15:09:55;;;;;;;;;;;21.00;99.90;;;;;;5089624;28;19908;-72
2022/10/09 15:12:21;;;;;;;;;;;20.90;99.90;;;;;;5089163;28;19908;-72
2022/10/09 15:14:47;;;;;;;;;;;20.80;99.90;;;;;;5088008;28;19909;-72
2022/10/09 15:17:12;;;;;;;;;;;20.80;99.90;;;;;;5086668;28;19954;-72
2022/10/09 15:19:38;;;;;;;;;;;20.70;99.90;;;;;;5082790;28;19923;-72
2022/10/09 15:22:04;;;;;;;;;;;20.70;99.90;;;;;;5085640;28;19926;-72
2022/10/09 15:24:29;;;;;;;;;;;20.60;99.90;;;;;;5089072;28;19924;-72
2022/10/09 15:26:58;;;;;;;;;;;20.60;99.90;;;;;;5089343;28;20282;-72
2022/10/09 15:29:24;;;;;;;;;;;20.60;99.90;;;;;;5071437;28;20396;-72
2022/10/09 15:31:50;;;;;;;;;;;20.50;99.90;;;;;;5087566;28;19912;-73
2022/10/09 15:34:17;;;;;;;;;;;20.50;99.90;;;;;;5094661;28;19901;-73
2022/10/09 15:36:44;;;;;;;;;;;20.50;99.90;;;;;;5075370;28;20003;-73
2022/10/09 15:39:13;;;;;;;;;;;20.40;99.90;;;;;;5093619;28;19935;-73
2022/10/09 15:41:39;;;;;;;;;;;20.30;99.90;;;;;;5093168;28;20004;-73
2022/10/09 15:44:06;;;;;;;;;;;20.30;99.90;;;;;;5094156;28;19909;-74
2022/10/09 15:46:32;;;;;;;;;;;20.30;99.90;;;;;;5096384;28;19956;-73
2022/10/09 15:48:58;;;;;;;;;;;20.20;99.90;;;;;;5093740;28;19935;-72
2022/10/09 15:51:24;;;;;;;;;;;20.10;99.90;;;;;;5096064;28;19976;-73
2022/10/09 15:53:50;;;;;;;;;;;20.10;99.90;;;;;;5095138;28;19912;-74
2022/10/09 15:56:21;;;;;;;;;;;20.10;99.90;;;;;;5096319;28;19908;-74
2022/10/09 15:58:47;;;;;;;;;;;20.00;99.90;;;;;;5101615;28;19921;-75
2022/10/09 16:01:13;;;;;;;;;;;20.00;99.90;;;;;;5100617;28;19912;-73
2022/10/09 16:03:39;;;;;;;;;;;20.00;99.90;;;;;;5097204;28;20242;-75
2022/10/09 16:06:08;;;;;;;;;;;19.90;99.90;;;;;;5095022;28;19920;-76
2022/10/09 16:08:33;;;;;;;;;;;19.80;99.90;;;;;;5097585;28;20028;-74
2022/10/09 16:10:59;;;;;;;;;;;19.80;99.90;;;;;;5095554;28;19913;-72
2022/10/09 16:13:28;;;;;;;;;;;19.70;99.90;;;;;;5091977;28;19921;-72
2022/10/09 16:15:54;;;;;;;;;;;19.70;99.90;;;;;;5092441;28;19927;-73
2022/10/09 16:18:21;;;;;;;;;;;19.70;99.90;;;;;;5083246;28;19924;-73
2022/10/09 16:20:47;;;;;;;;;;;19.70;99.90;;;;;;5096160;28;19908;-74
2022/10/09 16:23:13;;;;;;;;;;;19.70;99.90;;;;;;5095692;28;19970;-73
2022/10/09 16:25:54;;;;;;;;;;;19.60;99.90;;;;;;5096363;28;20009;-73
2022/10/09 16:28:20;;;;;;;;;;;19.50;99.90;;;;;;5078701;28;20007;-73
2022/10/09 16:30:46;;;;;;;;;;;19.40;99.90;;;;;;5101116;28;19924;-74
2022/10/09 16:33:11;;;;;;;;;;;19.40;99.90;;;;;;5075494;28;19923;-74
2022/10/09 16:35:37;;;;;;;;;;;19.40;99.90;;;;;;5095519;28;19932;-74
2022/10/09 16:38:03;;;;;;;;;;;19.40;99.90;;;;;;5094659;28;19959;-73
2022/10/09 16:40:29;;;;;;;;;;;19.40;99.90;;;;;;5089500;28;19975;-74
2022/10/09 16:42:55;;;;;;;;;;;19.30;99.90;;;;;;5094645;28;19919;-73
2022/10/09 16:45:21;;;;;;;;;;;19.30;99.90;;;;;;5095009;28;19972;-73
2022/10/09 16:47:47;;;;;;;;;;;19.20;99.90;;;;;;5093908;28;19930;-74
2022/10/09 16:50:13;;;;;;;;;;;19.20;99.90;;;;;;5093416;28;19896;-74
2022/10/09 16:52:38;;;;;;;;;;;19.20;99.90;;;;;;5094359;28;19913;-74
2022/10/09 16:55:04;;;;;;;;;;;19.20;99.90;;;;;;5093702;28;20146;-74
2022/10/09 16:57:30;;;;;;;;;;;19.20;99.90;;;;;;5096208;28;19909;-73
2022/10/09 16:59:56;;;;;;;;;;;19.20;99.90;;;;;;5095610;28;19925;-75
2022/10/09 17:02:21;;;;;;;;;;;19.10;99.90;;;;;;5093825;28;19912;-74
2022/10/09 17:04:47;;;;;;;;;;;19.10;99.90;;;;;;5093891;28;19920;-74
2022/10/09 17:07:12;;;;;;;;;;;19.00;99.90;;;;;;5095646;28;19912;-75
2022/10/09 17:09:39;;;;;;;;;;;19.10;99.90;;;;;;5092174;28;19938;-74
2022/10/09 17:12:08;;;;;;;;;;;19.00;99.90;;;;;;5080804;28;19912;-73
2022/10/09 17:14:35;;;;;;;;;;;19.00;99.90;;;;;;5078018;28;19912;-74
2022/10/09 17:17:02;;;;;;;;;;;19.00;99.90;;;;;;5086616;28;19912;-74
2022/10/09 17:19:27;;;;;;;;;;;19.00;99.90;;;;;;5092401;28;20022;-74
2022/10/09 17:21:53;;;;;;;;;;;19.00;99.90;;;;;;5093809;28;19901;-73
2022/10/09 17:24:19;;;;;;;;;;;18.90;99.90;;;;;;5093986;28;19915;-73
2022/10/09 17:26:44;;;;;;;;;;;18.90;99.90;;;;;;5094259;28;19900;-74
2022/10/09 17:29:11;;;;;;;;;;;18.90;99.90;;;;;;5093459;28;19916;-74
2022/10/09 17:31:37;;;;;;;;;;;18.90;99.90;;;;;;5093226;28;19916;-74
2022/10/09 17:34:03;;;;;;;;;;;18.90;99.90;;;;;;5071996;28;19915;-73
2022/10/09 17:36:30;;;;;;;;;;;18.80;99.90;;;;;;5090055;28;19927;-74
2022/10/09 17:38:56;;;;;;;;;;;18.80;99.90;;;;;;5093537;28;19917;-74
2022/10/09 17:41:23;;;;;;;;;;;18.80;99.90;;;;;;5078365;28;19992;-73
2022/10/09 17:43:52;;;;;;;;;;;18.80;99.90;;;;;;5095384;28;19913;-74
2022/10/09 17:46:18;;;;;;;;;;;18.80;99.90;;;;;;5093124;28;20384;-74
2022/10/09 17:48:48;;;;;;;;;;;18.80;99.90;;;;;;5094653;28;19919;-73
2022/10/09 17:51:15;;;;;;;;;;;18.70;99.90;;;;;;5098264;28;19935;-74
2022/10/09 17:53:41;;;;;;;;;;;18.70;99.90;;;;;;5093028;28;19917;-73
2022/10/09 17:56:06;;;;;;;;;;;18.70;99.90;;;;;;5095099;28;19980;-73
2022/10/09 17:58:32;;;;;;;;;;;18.70;99.90;;;;;;5094472;28;20043;-73
2022/10/09 18:01:02;;;;;;;;;;;18.70;99.90;;;;;;5074562;28;19912;-73
2022/10/09 18:03:28;;;;;;;;;;;18.60;99.90;;;;;;5074239;28;19913;-75
2022/10/09 18:05:54;;;;;;;;;;;18.60;99.90;;;;;;5091932;28;19931;-74
2022/10/09 18:08:21;;;;;;;;;;;18.60;99.90;;;;;;5075051;28;19927;-77
2022/10/09 18:10:55;;;;;;;;;;;18.60;99.90;;;;;;5077087;28;19904;-76
2022/10/09 18:13:21;;;;;;;;;;;18.60;99.90;;;;;;5088669;28;19901;-77
2022/10/09 18:15:46;;;;;;;;;;;18.60;99.90;;;;;;5101978;28;19923;-76
2022/10/09 18:18:12;;;;;;;;;;;18.60;99.90;;;;;;5094705;28;19919;-77
2022/10/09 18:20:38;;;;;;;;;;;18.60;99.90;;;;;;5093754;28;19984;-76
2022/10/09 18:23:04;;;;;;;;;;;18.60;99.90;;;;;;5093666;28;19916;-77
2022/10/09 18:25:30;;;;;;;;;;;18.60;99.90;;;;;;5091980;28;19931;-78
2022/10/09 18:27:56;;;;;;;;;;;18.50;99.90;;;;;;5091601;28;19915;-78
2022/10/09 18:30:21;;;;;;;;;;;18.40;99.90;;;;;;5089356;28;19913;-78
2022/10/09 18:32:47;;;;;;;;;;;18.40;99.90;;;;;;5073316;28;20341;-77
2022/10/09 18:35:13;;;;;;;;;;;18.50;99.90;;;;;;5091830;28;19912;-78
2022/10/09 18:37:39;;;;;;;;;;;18.50;99.90;;;;;;5091338;28;19915;-79
2022/10/09 18:40:05;;;;;;;;;;;18.50;99.90;;;;;;5073102;28;19921;-77
2022/10/09 18:42:31;;;;;;;;;;;18.50;99.90;;;;;;5094177;28;19924;-77
2022/10/09 18:44:56;;;;;;;;;;;18.40;99.90;;;;;;5074438;28;19912;-77
2022/10/09 18:47:27;;;;;;;;;;;18.40;99.90;;;;;;5084888;28;20003;-77
2022/10/09 18:49:55;;;;;;;;;;;18.40;99.90;;;;;;5070265;28;19909;-77
2022/10/09 18:52:21;;;;;;;;;;;18.40;99.90;;;;;;5089656;28;19908;-80
2022/10/09 18:54:49;;;;;;;;;;;18.40;99.90;;;;;;5088119;28;19924;-77
2022/10/09 18:57:14;;;;;;;;;;;18.40;99.90;;;;;;5096889;28;19922;-76
2022/10/09 18:59:41;;;;;;;;;;;18.40;99.90;;;;;;5070985;28;19947;-77
2022/10/09 19:02:06;;;;;;;;;;;18.40;99.90;;;;;;5088156;28;19909;-77
2022/10/09 19:04:32;;;;;;;;;;;18.30;99.90;;;;;;5094538;28;19916;-77
2022/10/09 19:06:58;;;;;;;;;;;18.30;99.90;;;;;;5092936;28;19909;-76
2022/10/09 19:09:24;;;;;;;;;;;18.30;99.90;;;;;;5095173;28;19916;-76
2022/10/09 19:11:51;;;;;;;;;;;18.30;99.90;;;;;;5093429;28;19919;-75
2022/10/09 19:14:17;;;;;;;;;;;18.30;99.90;;;;;;5094604;28;19916;-76
2022/10/09 19:16:42;;;;;;;;;;;18.40;99.90;;;;;;5079108;28;19916;-75
2022/10/09 19:19:08;;;;;;;;;;;18.30;99.90;;;;;;5096129;28;19931;-76
2022/10/09 19:21:36;;;;;;;;;;;18.30;99.90;;;;;;5096426;28;19905;-76
2022/10/09 19:24:04;;;;;;;;;;;18.30;99.90;;;;;;5077540;28;19975;-75
2022/10/09 19:26:31;;;;;;;;;;;18.30;99.90;;;;;;5078285;28;19926;-75
2022/10/09 19:28:58;;;;;;;;;;;18.30;99.90;;;;;;5075152;28;19917;-76
2022/10/09 19:31:23;;;;;;;;;;;18.40;99.90;;;;;;5092830;28;19908;-77
2022/10/09 19:33:49;;;;;;;;;;;18.40;99.90;;;;;;5089686;28;19916;-76
2022/10/09 19:36:15;;;;;;;;;;;18.30;99.90;;;;;;5087174;28;19908;-77
2022/10/09 19:38:40;;;;;;;;;;;18.30;99.90;;;;;;5084050;28;19947;-77
2022/10/09 19:41:11;;;;;;;;;;;18.30;99.90;;;;;;5085070;28;20003;-77
2022/10/09 19:43:36;;;;;;;;;;;18.30;99.90;;;;;;5088682;28;19935;-76
2022/10/09 19:46:03;;;;;;;;;;;18.30;99.90;;;;;;5082669;28;19935;-78
2022/10/09 19:48:29;;;;;;;;;;;18.20;99.90;;;;;;5085536;28;19915;-76
2022/10/09 19:50:55;;;;;;;;;;;18.20;99.90;;;;;;5067179;28;20014;-77
2022/10/09 19:53:21;;;;;;;;;;;18.20;99.90;;;;;;5084535;28;19916;-77
2022/10/09 19:55:46;;;;;;;;;;;18.20;99.90;;;;;;5088728;28;19916;-77
2022/10/09 19:58:12;;;;;;;;;;;18.20;99.90;;;;;;5087075;28;19909;-77
2022/10/09 20:00:42;;;;;;;;;;;18.20;99.90;;;;;;5085975;28;19909;-77
2022/10/09 20:03:11;;;;;;;;;;;18.20;99.90;;;;;;5088413;28;19934;-77
2022/10/09 20:05:37;;;;;;;;;;;18.20;99.90;;;;;;5086733;28;19940;-77
2022/10/09 20:08:05;;;;;;;;;;;18.20;99.90;;;;;;5088398;28;19909;-76
2022/10/09 20:10:33;;;;;;;;;;;18.20;99.90;;;;;;5093244;28;20446;-76
2022/10/09 20:12:59;;;;;;;;;;;18.20;99.90;;;;;;5074092;28;19908;-77
2022/10/09 20:15:24;;;;;;;;;;;18.20;99.90;;;;;;5090505;28;20079;-76
2022/10/09 20:17:51;;;;;;;;;;;18.10;99.90;;;;;;5073636;28;19970;-76
2022/10/09 20:20:17;;;;;;;;;;;18.20;99.90;;;;;;5091794;28;19956;-76
2022/10/09 20:22:42;;;;;;;;;;;18.10;99.90;;;;;;5094454;28;19909;-76
2022/10/09 20:25:08;;;;;;;;;;;18.10;99.90;;;;;;5072389;28;19920;-77
2022/10/09 20:27:34;;;;;;;;;;;18.10;99.90;;;;;;5090811;28;19931;-76
2022/10/09 20:29:59;;;;;;;;;;;18.10;99.90;;;;;;5086127;28;20015;-76